Flight Track Log - Related Links

Times and Time Zones

All times are in EDT time to prevent confusion due to time zone crossing. See the N675MC flight status page for this flight to view local times or setup timezone preferences in your user account.

Time Position Orientation Groundspeed Altitude Reporting Facility
EDT Latitude Longitude Course Direction KTS MPH feet Rate Location/Type
Wed 08:46:25 AM 33.6333 -84.4167 129° Southeast 148 170 2,500  Level Atlanta TRACON
Wed 08:47:20 AM 33.6167 -84.3500 107° East 233 268 4,000 2,380 Climbing Atlanta TRACON
Wed 08:48:26 AM 33.5833 -84.2667 116° Southeast 284 327 7,300 2,780 Climbing Atlanta TRACON
Wed 08:50:00 AM 33.3875 -83.8749 128° Southeast  Level Estimated
Wed 08:50:45 AM 33.3808 -84.2378 173° South 323 372 13,500  Level Atlanta Center
Wed 08:51:00 AM 33.3374 -83.7647 129° Southeast  Level Estimated
Wed 08:51:45 AM 33.3058 -84.1906 152° Southeast 338 389 15,600  Level Atlanta Center
Wed 08:52:45 AM 33.2203 -84.1233 147° Southeast 361 415 17,900 2,050 Climbing Atlanta Center
Wed 08:53:45 AM 33.1347 -84.0561 147° Southeast 375 432 19,700 1,900 Climbing Atlanta Center
Wed 08:54:45 AM 33.0511 -83.9694 139° Southeast 385 443 21,700 1,700 Climbing Atlanta Center
Wed 08:55:45 AM 32.9675 -83.8828 139° Southeast 390 449 23,100 650 Climbing Atlanta Center
Wed 08:56:45 AM 32.8714 -83.7964 143° Southeast 413 475 23,000 -50 Descending Atlanta Center
Wed 08:57:45 AM 32.7669 -83.7103 145° Southeast 439 505 23,000  Level Atlanta Center
Wed 08:58:45 AM 32.6622 -83.6267 146° Southeast 453 521 23,000 -50 Level Atlanta Center
Wed 08:59:45 AM 32.6094 -83.4964 116° Southeast 433 498 22,900  Descending Atlanta Center
Wed 09:00:45 AM 32.5961 -83.3461 96° East 415 478 23,000 50 Climbing Atlanta Center
Wed 09:01:45 AM 32.5869 -83.2081 94° East 426 490 23,000  Level Atlanta Center
Wed 09:02:45 AM 32.5819 -83.0675 92° East 421 484 23,000  Level Atlanta Center
Wed 09:03:45 AM 32.5700 -82.9150 95° East 427 491 23,000  Level Atlanta Center
Wed 09:04:45 AM 32.5500 -82.7894 101° East 422 486 23,000  Level Atlanta Center
Wed 09:05:45 AM 32.5133 -82.6594 108° East 422 486 23,000  Level Atlanta Center
Wed 09:06:45 AM 32.4719 -82.5247 110° East 422 486 23,000 -1,947 Level Atlanta Center
Wed 09:08:16 AM 32.4178 -82.3117 107° East 408 470 18,100 -3,219 Descending Jacksonville Center
Wed 09:09:16 AM 32.3881 -82.1817 105° East 401 461 14,900 -3,000 Descending Jacksonville Center
Wed 09:10:16 AM 32.3600 -82.0539 105° East 395 455 12,100 -1,900 Descending Jacksonville Center
Wed 09:11:16 AM 32.3383 -81.9458 103° East 383 441 11,100 -900 Descending Jacksonville Center
Wed 09:12:16 AM 32.3125 -81.8331 105° East 337 388 10,300 -1,000 Descending Jacksonville Center
Wed 09:13:16 AM 32.2783 -81.7450 115° Southeast 300 345 9,100 -850 Descending Jacksonville Center
Wed 09:14:16 AM 32.2442 -81.6594 115° Southeast 277 319 8,600 -1,200 Descending Jacksonville Center
Wed 09:15:16 AM 32.2119 -81.5764 115° Southeast 277 319 6,700 -1,650 Descending Jacksonville Center
Wed 09:16:16 AM 32.1819 -81.4983 114° Southeast 277 319 5,300 -1,450 Descending Jacksonville Center
Wed 09:17:16 AM 32.1497 -81.4203 116° Southeast 267 307 3,800 -1,550 Descending Jacksonville Center
Wed 09:18:16 AM 32.1281 -81.3569 112° Southeast 250 288 2,200 -1,300 Descending Jacksonville Center
Wed 09:19:16 AM 32.1272 -81.2931 91° East 208 239 1,200 -1,000 Descending Jacksonville Center

Login

Don't have an account? Register now (free) for customized features, flight alerts, and more!